Nearby METAR Reports

 

KSJC - San Jose, California, USA
Distance from station: NE 9mi, 14km
Updated: Fri, 09-Dec-2022 10:53am PST
Partly cloudy
Partly cloudy
 Wind from calm
Wind: Calm
Temperature: 54°F , 12°C
Dew Point: 46°F , 8°C
Humidity: 77%
Barometer: 30.22 inHg , 1023.4 hPa
Clouds: Partly cloudy
Visibility: 10 miles , 16 km
Cloud details: Few Clouds 1300 ft
Partly cloudy 10000 ft
2022/12/09 18:53 KSJC 091853Z 00000KT 10SM FEW013 SCT100 12/08 A3022 RMK AO2 SLP232 T01220078
KRHV - San Jose/Reid, California, USA
Distance from station: ENE 12mi, 19km
Updated: Fri, 09-Dec-2022 11:47am PST
Mostly cloudy
Mostly cloudy
 Wind from calm
Wind: Calm
Temperature: 55°F , 13°C
Dew Point: 46°F , 8°C
Humidity: 72%
Barometer: 30.19 inHg , 1022.4 hPa
Clouds: Mostly cloudy
Visibility: 10 miles , 16 km
Cloud details: Mostly cloudy 2500 ft
2022/12/09 19:47 KRHV 091947Z 00000KT 10SM BKN025 13/08 A3019
 
KPAO - Palo Alto, California, USA
Distance from station: NNW 14mi, 23km
Updated: Fri, 09-Dec-2022 11:47am PST
Mostly cloudy
Mostly cloudy
 Wind from varies
Wind: varies 6 mph , 9 km/h
Temperature: 52°F , 11°C
Dew Point: 45°F , 7°C
Humidity: 77%
Barometer: 30.20 inHg , 1022.7 hPa
Clouds: Mostly cloudy
Visibility: 10 miles , 16 km
Cloud details: Partly cloudy 2000 ft
Mostly cloudy 15000 ft
2022/12/09 19:47 KPAO 091947Z VRB05KT 10SM SCT020 BKN150 11/07 A3020
KOAK - Oakland, California, USA
Distance from station: NNW 31mi, 50km
Updated: Fri, 09-Dec-2022 11:53am PST
Mostly cloudy
Mostly cloudy
 Wind from S
Wind: S 5 mph , 7 km/h
Temperature: 52°F , 11°C
Dew Point: 46°F , 8°C
Humidity: 82%
Barometer: 30.20 inHg , 1022.7 hPa
Clouds: Mostly cloudy
Visibility: 10 miles , 16 km
Cloud details: Few Clouds 1000 ft
Mostly cloudy 18000 ft
Mostly cloudy 23000 ft
2022/12/09 19:53 KOAK 091953Z 19004KT 10SM FEW010 BKN180 BKN230 11/08 A3020 RMK AO2 SLP226 T01060083
 
KSQL - San Carlos Airpo, California, USA
Distance from station: NW 21mi, 34km
Updated: Fri, 09-Dec-2022 10:47am PST
Mostly cloudy
Mostly cloudy
 Wind from calm
Wind: Calm
Temperature: 50°F , 10°C
Dew Point: 45°F , 7°C
Humidity: 82%
Barometer: 30.23 inHg , 1023.7 hPa
Clouds: Mostly cloudy
Visibility: 10 miles , 16 km
Cloud details: Few Clouds 1000 ft
Mostly cloudy 15000 ft
2022/12/09 18:47 KSQL 091847Z 00000KT 10SM FEW010 BKN150 10/07 A3023
KSFO - San Francisco, California, USA
Distance from station: NW 30mi, 49km
Updated: Fri, 09-Dec-2022 10:56am PST
Mostly cloudy
Mostly cloudy
 Wind from NE
Wind: NE 5 mph , 7 km/h
Temperature: 54°F , 12°C
Dew Point: 45°F , 7°C
Humidity: 72%
Barometer: 30.21 inHg , 1023 hPa
Clouds: Mostly cloudy
Visibility: 10 miles , 16 km
Cloud details: Few Clouds 1500 ft
Mostly cloudy 18000 ft
2022/12/09 18:56 KSFO 091856Z 05004KT 10SM FEW015 BKN180 12/07 A3021 RMK AO2 SLP231 T01170072
 
KE16 - San Martin, California, USA
Distance from station: ESE 27mi, 43km
Updated: Fri, 09-Dec-2022 11:35am PST
Overcast
Overcast
 Wind from S
Wind: S 6 mph , 9 km/h
Temperature: 52°F , 11°C
Dew Point: 48°F , 9°C
Humidity: 88%
Barometer: 30.21 inHg , 1023 hPa
Clouds: Overcast
Visibility: 10 miles , 16 km
Cloud details: Mostly cloudy 1000 ft
Mostly cloudy 2300 ft
Overcast 4200 ft
2022/12/09 19:35 KE16 091935Z AUTO 18005KT 10SM BKN010 BKN023 OVC042 11/09 A3021 RMK AO2
KWVI - Watsonville, California, USA
Distance from station: SSE 27mi, 44km
Updated: Fri, 09-Dec-2022 11:53am PST
Overcast
Overcast
 Wind from SE
Wind: SE 3 mph , 6 km/h
Temperature: 54°F , 12°C
Dew Point: 48°F , 9°C
Humidity: 82%
Barometer: 30.19 inHg , 1022.4 hPa
Clouds: Overcast
Visibility: 10 miles , 16 km
Cloud details: Partly cloudy 1000 ft
Overcast 2800 ft
2022/12/09 19:53 KWVI 091953Z AUTO 14003KT 10SM SCT010 OVC028 12/09 A3019 RMK AO2 RAE00 SLP222 P0000 T01220094
 
KHAF - Half Moon Bay, California, USA
Distance from station: WNW 31mi, 50km
Updated: Fri, 09-Dec-2022 11:55am PST
Haze, Clear
Haze, Clear
 Wind from SW
Wind: SW 6 mph , 9 km/h
Temperature: 54°F , 12°C
Dew Point: 48°F , 9°C
Humidity: 82%
Barometer: 30.19 inHg , 1022.4 hPa
Summary: Haze
Clouds: Clear
Visibility: 6 miles , 10 km
2022/12/09 19:55 KHAF 091955Z AUTO 23005KT 6SM HZ CLR 12/09 A3019 RMK AO2
KHWD - Hayward, California, USA
Distance from station: N 28mi, 44km
Updated: Fri, 09-Dec-2022 11:54am PST
Few Clouds
Few Clouds
 Wind from W
Wind: W 3 mph , 6 km/h
Temperature: 54°F , 12°C
Dew Point: 45°F , 7°C
Humidity: 72%
Barometer: 30.19 inHg , 1022.4 hPa
Clouds: Few Clouds
Visibility: 10 miles , 16 km
Cloud details: Few Clouds 1700 ft
2022/12/09 19:54 KHWD 091954Z 28003KT 10SM FEW017 12/07 A3019 RMK AO2 SLP232 T01220072
 
KLVK - Livermore, California, USA
Distance from station: NNE 31mi, 51km
Updated: Fri, 09-Dec-2022 11:53am PST
Partly cloudy
Partly cloudy
 Wind from W
Wind: W 3 mph , 6 km/h
Temperature: 54°F , 12°C
Dew Point: 43°F , 6°C
Humidity: 67%
Barometer: 30.18 inHg , 1022 hPa
Clouds: Partly cloudy
Visibility: 10 miles , 16 km
Cloud details: Partly cloudy 3100 ft
2022/12/09 19:53 KLVK 091953Z 26003KT 10SM SCT031 12/06 A3018 RMK AO2 SLP218 T01170056